createdAt,value
2018-05-27T00:00:46.623Z,22.69
2018-05-27T00:01:46.624Z,22.75
2018-05-27T00:02:46.579Z,22.69
2018-05-27T00:03:46.621Z,22.69
2018-05-27T00:04:46.592Z,22.75
2018-05-27T00:05:46.597Z,22.75
2018-05-27T00:06:46.625Z,22.75
2018-05-27T00:07:46.602Z,22.69
2018-05-27T00:08:46.609Z,22.69
2018-05-27T00:09:46.584Z,22.69
2018-05-27T00:10:46.644Z,22.75
2018-05-27T00:11:46.594Z,22.75
2018-05-27T00:12:46.699Z,22.69
2018-05-27T00:13:46.669Z,22.69
2018-05-27T00:14:46.795Z,22.69
2018-05-27T00:15:46.633Z,22.69
2018-05-27T00:16:46.664Z,22.69
2018-05-27T00:17:46.824Z,22.62
2018-05-27T00:18:46.631Z,22.69
2018-05-27T00:19:46.611Z,22.69
2018-05-27T00:20:46.611Z,22.62
2018-05-27T00:21:46.633Z,22.62
2018-05-27T00:22:46.630Z,22.62
2018-05-27T00:23:46.655Z,22.62
2018-05-27T00:24:46.621Z,22.62
2018-05-27T00:25:46.637Z,22.62
2018-05-27T00:26:46.632Z,22.62
2018-05-27T00:27:46.611Z,22.56
2018-05-27T00:28:46.643Z,22.56
2018-05-27T00:29:46.634Z,22.56
2018-05-27T00:30:46.661Z,22.56
2018-05-27T00:31:46.609Z,22.56
2018-05-27T00:32:46.625Z,22.56
2018-05-27T00:33:46.738Z,22.5
2018-05-27T00:34:46.662Z,22.5
2018-05-27T00:35:46.687Z,22.5
2018-05-27T00:36:46.613Z,22.5
2018-05-27T00:37:46.627Z,22.5
2018-05-27T00:38:46.623Z,22.5
2018-05-27T00:39:46.638Z,22.44
2018-05-27T00:40:46.649Z,22.5
2018-05-27T00:41:46.643Z,22.44
2018-05-27T00:42:46.686Z,22.44
2018-05-27T00:43:46.629Z,22.44
2018-05-27T00:44:46.621Z,22.44
2018-05-27T00:45:46.642Z,22.37
2018-05-27T00:46:46.608Z,22.37
2018-05-27T00:47:46.672Z,22.37
2018-05-27T00:48:46.624Z,22.44
2018-05-27T00:49:46.626Z,22.37
2018-05-27T00:50:46.607Z,22.37
2018-05-27T00:51:46.633Z,22.37
2018-05-27T00:52:46.638Z,22.31
2018-05-27T00:53:46.639Z,22.31
2018-05-27T00:54:46.618Z,22.31
2018-05-27T00:55:46.615Z,22.31
2018-05-27T00:56:46.683Z,22.31
2018-05-27T00:57:46.709Z,22.31
2018-05-27T00:58:46.705Z,22.31
2018-05-27T00:59:46.640Z,22.25
2018-05-27T01:00:46.651Z,22.25
2018-05-27T01:01:46.648Z,22.25
2018-05-27T01:02:46.609Z,22.25
2018-05-27T01:03:46.659Z,22.25
2018-05-27T01:04:46.633Z,22.25
2018-05-27T01:05:46.651Z,22.25
2018-05-27T01:06:46.628Z,22.19
2018-05-27T01:07:46.644Z,22.19
2018-05-27T01:08:46.640Z,22.25
2018-05-27T01:09:46.635Z,22.19
2018-05-27T01:10:46.674Z,22.19
2018-05-27T01:11:46.601Z,22.19
2018-05-27T01:12:46.610Z,22.13
2018-05-27T01:13:46.630Z,22.19
2018-05-27T01:14:46.632Z,22.13
2018-05-27T01:15:46.610Z,22.19
2018-05-27T01:16:46.604Z,22.19
2018-05-27T01:17:46.688Z,22.19
2018-05-27T01:18:46.624Z,22.19
2018-05-27T01:19:46.622Z,22.19
2018-05-27T01:20:46.614Z,22.19
2018-05-27T01:21:46.633Z,22.19
2018-05-27T01:22:46.649Z,22.19
2018-05-27T01:23:46.695Z,22.19
2018-05-27T01:24:46.619Z,22.19
2018-05-27T01:25:46.625Z,22.19
2018-05-27T01:26:46.788Z,22.13
2018-05-27T01:27:46.677Z,22.13
2018-05-27T01:28:46.660Z,22.13
2018-05-27T01:29:46.617Z,22.13
2018-05-27T01:30:46.662Z,22.13
2018-05-27T01:31:46.845Z,22.13
2018-05-27T01:32:46.640Z,22.13
2018-05-27T01:33:46.653Z,22.06
2018-05-27T01:34:46.630Z,22.06
2018-05-27T01:35:46.594Z,22.13
2018-05-27T01:36:46.686Z,22.06
2018-05-27T01:37:46.962Z,22.06
2018-05-27T01:38:46.595Z,22.06
2018-05-27T01:39:46.634Z,22
2018-05-27T01:40:46.590Z,22.06
2018-05-27T01:41:46.662Z,22.06
2018-05-27T01:42:46.662Z,22
2018-05-27T01:43:46.628Z,22.06
2018-05-27T01:44:46.597Z,22
2018-05-27T01:45:46.634Z,21.94
2018-05-27T01:46:46.608Z,22
2018-05-27T01:47:46.634Z,21.94
2018-05-27T01:48:46.794Z,21.94
2018-05-27T01:49:46.588Z,21.94
2018-05-27T01:50:46.637Z,21.94
2018-05-27T01:51:46.600Z,21.94
2018-05-27T01:52:46.600Z,21.94
2018-05-27T01:53:46.636Z,21.87
2018-05-27T01:54:46.765Z,21.94
2018-05-27T01:55:46.668Z,21.87
2018-05-27T01:56:46.680Z,21.87
2018-05-27T01:57:46.782Z,21.87
2018-05-27T01:58:46.648Z,21.87
2018-05-27T01:59:46.745Z,21.87
2018-05-27T02:00:46.615Z,21.87
2018-05-27T02:01:46.615Z,21.81
2018-05-27T02:02:46.655Z,21.81
2018-05-27T02:03:46.583Z,21.81
2018-05-27T02:04:46.610Z,21.81
2018-05-27T02:05:46.596Z,21.87
2018-05-27T02:06:46.879Z,21.81
2018-05-27T02:07:46.619Z,21.87
2018-05-27T02:08:46.627Z,21.81
2018-05-27T02:09:46.672Z,21.81
2018-05-27T02:10:46.603Z,21.87
2018-05-27T02:11:46.604Z,21.81
2018-05-27T02:12:46.652Z,21.81
2018-05-27T02:13:46.626Z,21.87
2018-05-27T02:14:46.598Z,21.81
2018-05-27T02:15:46.600Z,21.81
2018-05-27T02:16:46.606Z,21.81
2018-05-27T02:17:46.618Z,21.81
2018-05-27T02:18:46.607Z,21.81
2018-05-27T02:19:46.619Z,21.81
2018-05-27T02:20:46.597Z,21.75
2018-05-27T02:21:46.734Z,21.75
2018-05-27T02:22:46.575Z,21.75
2018-05-27T02:23:46.588Z,21.75
2018-05-27T02:24:46.584Z,21.75
2018-05-27T02:25:46.607Z,21.69
2018-05-27T02:26:46.652Z,21.69
2018-05-27T02:27:46.593Z,21.69
2018-05-27T02:28:46.593Z,21.69
2018-05-27T02:29:46.607Z,21.69
2018-05-27T02:30:46.640Z,21.62
2018-05-27T02:31:46.627Z,21.62
2018-05-27T02:32:46.638Z,21.62
2018-05-27T02:33:46.580Z,21.62
2018-05-27T02:34:46.595Z,21.62
2018-05-27T02:35:46.609Z,21.62
2018-05-27T02:36:46.783Z,21.62
2018-05-27T02:37:46.588Z,21.62
2018-05-27T02:38:46.688Z,21.62
2018-05-27T02:39:46.636Z,21.62
2018-05-27T02:40:46.844Z,21.62
2018-05-27T02:41:46.667Z,21.62
2018-05-27T02:42:46.873Z,21.56
2018-05-27T02:43:46.796Z,21.56
2018-05-27T02:44:46.604Z,21.56
2018-05-27T02:45:46.578Z,21.56
2018-05-27T02:46:46.598Z,21.56
2018-05-27T02:47:46.622Z,21.56
2018-05-27T02:48:46.616Z,21.56
2018-05-27T02:49:46.633Z,21.56
2018-05-27T02:50:46.601Z,21.56
2018-05-27T02:51:46.684Z,21.5
2018-05-27T02:52:46.640Z,21.5
2018-05-27T02:53:46.595Z,21.5
2018-05-27T02:54:46.630Z,21.5
2018-05-27T02:55:46.621Z,21.5
2018-05-27T02:56:46.662Z,21.5
2018-05-27T02:57:46.645Z,21.5
2018-05-27T02:58:46.880Z,21.5
2018-05-27T02:59:46.607Z,21.5
2018-05-27T03:00:46.609Z,21.5
2018-05-27T03:01:46.581Z,21.5
2018-05-27T03:02:46.618Z,21.44
2018-05-27T03:03:46.599Z,21.44
2018-05-27T03:04:46.576Z,21.44
2018-05-27T03:05:46.597Z,21.44
2018-05-27T03:06:46.665Z,21.44
2018-05-27T03:07:46.706Z,21.44
2018-05-27T03:08:46.615Z,21.44
2018-05-27T03:09:46.670Z,21.37
2018-05-27T03:10:46.663Z,21.37
2018-05-27T03:11:46.605Z,21.31
2018-05-27T03:12:46.725Z,21.31
2018-05-27T03:13:46.576Z,21.31
2018-05-27T03:14:46.620Z,21.31
2018-05-27T03:15:46.576Z,21.31
2018-05-27T03:16:46.589Z,21.31
2018-05-27T03:17:46.537Z,21.31
2018-05-27T03:18:46.674Z,21.25
2018-05-27T03:19:46.590Z,21.31
2018-05-27T03:20:46.573Z,21.25
2018-05-27T03:21:46.753Z,21.25
2018-05-27T03:22:47.021Z,21.19
2018-05-27T03:23:46.617Z,21.19
2018-05-27T03:24:46.622Z,21.19
2018-05-27T03:25:46.611Z,21.19
2018-05-27T03:26:46.615Z,21.19
2018-05-27T03:27:46.597Z,21.19
2018-05-27T03:28:46.557Z,21.12
2018-05-27T03:29:46.590Z,21.12
2018-05-27T03:30:46.618Z,21.06
2018-05-27T03:31:46.597Z,21
2018-05-27T03:32:46.612Z,20.94
2018-05-27T03:33:46.572Z,20.75
2018-05-27T03:34:46.557Z,20.62
2018-05-27T03:35:46.554Z,20.5
2018-05-27T03:36:46.602Z,20.44
2018-05-27T03:37:46.585Z,20.37
2018-05-27T03:38:46.582Z,20.37
2018-05-27T03:39:46.594Z,20.31
2018-05-27T03:40:46.584Z,20.25
2018-05-27T03:41:46.571Z,20.25
2018-05-27T03:42:46.540Z,20.25
2018-05-27T03:43:46.578Z,20.12
2018-05-27T03:44:46.623Z,20.06
2018-05-27T03:45:46.560Z,20.06
2018-05-27T03:46:46.594Z,20
2018-05-27T03:47:46.650Z,20
2018-05-27T03:48:46.615Z,19.94
2018-05-27T03:49:46.640Z,19.87
2018-05-27T03:50:46.585Z,19.87
2018-05-27T03:51:46.650Z,19.94
2018-05-27T03:52:46.582Z,19.87
2018-05-27T03:53:46.794Z,19.94
2018-05-27T03:54:46.578Z,19.87
2018-05-27T03:55:46.667Z,19.94
2018-05-27T03:56:46.768Z,20
2018-05-27T03:57:46.591Z,20
2018-05-27T03:58:46.572Z,20
2018-05-27T03:59:46.625Z,20
2018-05-27T04:00:46.545Z,20
2018-05-27T04:01:46.606Z,20
2018-05-27T04:02:46.773Z,20
2018-05-27T04:03:46.603Z,20
2018-05-27T04:04:46.703Z,20
2018-05-27T04:05:46.615Z,20
2018-05-27T04:06:46.661Z,20
2018-05-27T04:07:46.733Z,20
2018-05-27T04:08:46.684Z,20
2018-05-27T04:09:46.577Z,20
2018-05-27T04:10:46.684Z,20
2018-05-27T04:11:46.566Z,20.06
2018-05-27T04:12:46.594Z,20.06
2018-05-27T04:13:46.548Z,20.06
2018-05-27T04:14:46.542Z,20.06
2018-05-27T04:15:46.586Z,20.06
2018-05-27T04:16:46.624Z,20.06
2018-05-27T04:17:46.591Z,20.06
2018-05-27T04:18:46.643Z,20
2018-05-27T04:19:46.553Z,19.94
2018-05-27T04:20:46.734Z,19.94
2018-05-27T04:21:46.551Z,19.75
2018-05-27T04:22:46.580Z,19.75
2018-05-27T04:23:46.531Z,19.75
2018-05-27T04:24:46.523Z,19.69
2018-05-27T04:25:46.576Z,19.69
2018-05-27T04:26:46.548Z,19.62
2018-05-27T04:27:46.496Z,19.62
2018-05-27T04:28:46.662Z,19.69
2018-05-27T04:29:46.631Z,19.69
2018-05-27T04:30:46.529Z,19.69
2018-05-27T04:31:46.572Z,19.69
2018-05-27T04:32:46.563Z,19.62
2018-05-27T04:33:46.609Z,19.69
2018-05-27T04:34:46.533Z,19.69
2018-05-27T04:35:46.504Z,19.75
2018-05-27T04:36:46.577Z,19.75
2018-05-27T04:37:46.548Z,19.75
2018-05-27T04:38:46.523Z,19.81
2018-05-27T04:39:46.522Z,19.75
2018-05-27T04:40:46.549Z,19.75
2018-05-27T04:41:46.494Z,19.81
2018-05-27T04:42:46.523Z,19.81
2018-05-27T04:43:46.522Z,19.81
2018-05-27T04:44:46.865Z,19.87
2018-05-27T04:45:46.488Z,19.87
2018-05-27T04:46:46.531Z,19.94
2018-05-27T04:47:46.581Z,19.94
2018-05-27T04:48:46.510Z,19.94
2018-05-27T04:49:46.504Z,19.94
2018-05-27T04:50:46.510Z,19.94
2018-05-27T04:51:46.512Z,19.94
2018-05-27T04:52:46.522Z,20
2018-05-27T04:53:46.522Z,20
2018-05-27T04:54:46.492Z,20
2018-05-27T04:55:46.529Z,20
2018-05-27T04:56:46.501Z,20
2018-05-27T04:57:46.492Z,20.06
2018-05-27T04:58:46.508Z,20.06
2018-05-27T04:59:46.560Z,20.06
2018-05-27T05:00:46.491Z,20.06
2018-05-27T05:01:46.498Z,20.06
2018-05-27T05:02:46.532Z,20.06
2018-05-27T05:03:46.513Z,20.12
2018-05-27T05:04:46.532Z,20.12
2018-05-27T05:05:46.505Z,20.12
2018-05-27T05:06:46.544Z,20.12
2018-05-27T05:07:46.521Z,20.19
2018-05-27T05:08:46.554Z,20.19
2018-05-27T05:09:46.482Z,20.19
2018-05-27T05:10:46.590Z,20.19
2018-05-27T05:11:46.849Z,20.25
2018-05-27T05:12:46.646Z,20.25
2018-05-27T05:13:46.613Z,20.25
2018-05-27T05:14:46.503Z,20.25
2018-05-27T05:15:46.538Z,20.31
2018-05-27T05:16:46.525Z,20.31
2018-05-27T05:17:46.491Z,20.31
2018-05-27T05:18:46.563Z,20.37
2018-05-27T05:19:46.543Z,20.37
2018-05-27T05:20:46.570Z,20.37
2018-05-27T05:21:46.556Z,20.44
2018-05-27T05:22:46.511Z,20.44
2018-05-27T05:23:46.509Z,20.44
2018-05-27T05:24:46.513Z,20.5
2018-05-27T05:25:46.676Z,20.5
2018-05-27T05:26:46.501Z,20.5
2018-05-27T05:27:46.898Z,20.5
2018-05-27T05:28:46.489Z,20.5
2018-05-27T05:29:46.492Z,20.5
2018-05-27T05:30:46.521Z,20.5
2018-05-27T05:31:46.525Z,20.56
2018-05-27T05:32:46.578Z,20.56
2018-05-27T05:33:46.494Z,20.5
2018-05-27T05:34:46.544Z,20.56
2018-05-27T05:35:46.506Z,20.56
2018-05-27T05:36:46.508Z,20.56
2018-05-27T05:37:46.530Z,20.62
2018-05-27T05:38:46.520Z,20.62
2018-05-27T05:39:46.612Z,20.69
2018-05-27T05:40:46.492Z,20.69
2018-05-27T05:41:46.509Z,20.69
2018-05-27T05:42:46.575Z,20.75
2018-05-27T05:43:47.276Z,20.75
2018-05-27T05:44:46.498Z,20.81
2018-05-27T05:45:46.532Z,20.81
2018-05-27T05:46:46.490Z,20.81
2018-05-27T05:47:46.572Z,20.88
2018-05-27T05:48:46.551Z,20.88
2018-05-27T05:49:46.521Z,20.94
2018-05-27T05:50:46.540Z,20.94
2018-05-27T05:51:46.536Z,20.94
2018-05-27T05:52:46.515Z,21
2018-05-27T05:53:46.501Z,21
2018-05-27T05:54:46.463Z,21.06
2018-05-27T05:55:46.577Z,21.06
2018-05-27T05:56:46.498Z,21.06
2018-05-27T05:57:46.474Z,21.12
2018-05-27T05:58:46.460Z,21.12
2018-05-27T05:59:46.503Z,21.12
2018-05-27T06:00:46.505Z,21.19
2018-05-27T06:01:46.749Z,21.19
2018-05-27T06:02:46.500Z,21.25
2018-05-27T06:03:46.532Z,21.31
2018-05-27T06:04:46.521Z,21.31
2018-05-27T06:05:46.473Z,21.31
2018-05-27T06:06:46.535Z,21.31
2018-05-27T06:07:46.480Z,21.37
2018-05-27T06:08:46.564Z,21.37
2018-05-27T06:09:46.486Z,21.44
2018-05-27T06:10:46.479Z,21.44
2018-05-27T06:11:46.556Z,21.5
2018-05-27T06:12:46.679Z,21.5
2018-05-27T06:13:46.499Z,21.56
2018-05-27T06:14:46.666Z,21.56
2018-05-27T06:15:46.526Z,21.62
2018-05-27T06:16:46.491Z,21.62
2018-05-27T06:17:46.557Z,21.62
2018-05-27T06:18:46.549Z,21.69
2018-05-27T06:19:46.500Z,21.69
2018-05-27T06:20:46.754Z,21.69
2018-05-27T06:21:46.580Z,21.69
2018-05-27T06:22:46.522Z,21.75
2018-05-27T06:23:46.493Z,21.75
2018-05-27T06:24:46.491Z,21.75
2018-05-27T06:25:46.989Z,21.81
2018-05-27T06:26:46.626Z,21.81
2018-05-27T06:27:46.522Z,21.87
2018-05-27T06:28:46.576Z,21.87
2018-05-27T06:29:46.500Z,21.87
2018-05-27T06:30:46.491Z,21.87
2018-05-27T06:31:46.563Z,21.94
2018-05-27T06:32:46.502Z,21.94
2018-05-27T06:33:46.664Z,22
2018-05-27T06:34:46.617Z,22
2018-05-27T06:35:46.509Z,22
2018-05-27T06:36:46.471Z,22.06
2018-05-27T06:37:46.542Z,22.06
2018-05-27T06:38:47.942Z,22.06
2018-05-27T06:39:46.485Z,22.13
2018-05-27T06:40:46.517Z,22.13
2018-05-27T06:41:46.497Z,22.13
2018-05-27T06:42:46.962Z,22.19
2018-05-27T06:43:46.474Z,22.19
2018-05-27T06:44:46.533Z,22.25
2018-05-27T06:45:46.542Z,22.25
2018-05-27T06:46:46.553Z,22.25
2018-05-27T06:47:46.562Z,22.31
2018-05-27T06:48:46.514Z,22.31
2018-05-27T06:49:46.479Z,22.31
2018-05-27T06:50:46.520Z,22.37
2018-05-27T06:51:46.553Z,22.37
2018-05-27T06:52:46.486Z,22.44
2018-05-27T06:53:46.454Z,22.44
2018-05-27T06:54:46.522Z,22.44
2018-05-27T06:55:46.563Z,22.44
2018-05-27T06:56:46.464Z,22.44
2018-05-27T06:57:46.483Z,22.5
2018-05-27T06:58:46.467Z,22.5
2018-05-27T06:59:46.674Z,22.5
2018-05-27T07:00:46.664Z,22.56
2018-05-27T07:01:46.495Z,22.56
2018-05-27T07:02:46.449Z,22.56
2018-05-27T07:03:46.502Z,22.56
2018-05-27T07:04:47.700Z,22.62
2018-05-27T07:05:46.505Z,22.62
2018-05-27T07:06:46.520Z,22.69
2018-05-27T07:07:46.470Z,22.69
2018-05-27T07:08:46.456Z,22.69
2018-05-27T07:09:46.470Z,22.69
2018-05-27T07:10:46.458Z,22.69
2018-05-27T07:11:46.500Z,22.69
2018-05-27T07:12:46.453Z,22.75
2018-05-27T07:13:46.471Z,22.75
2018-05-27T07:14:46.474Z,22.75
2018-05-27T07:15:46.488Z,22.81
2018-05-27T07:16:46.500Z,22.81
2018-05-27T07:17:46.535Z,22.81
2018-05-27T07:18:46.519Z,22.81
2018-05-27T07:19:46.469Z,22.81
2018-05-27T07:20:46.491Z,22.87
2018-05-27T07:21:47.163Z,22.87
2018-05-27T07:22:46.498Z,22.87
2018-05-27T07:23:46.458Z,22.94
2018-05-27T07:24:46.516Z,22.94
2018-05-27T07:25:46.607Z,22.94
2018-05-27T07:26:46.450Z,23
2018-05-27T07:27:46.487Z,23
2018-05-27T07:28:46.463Z,23.06
2018-05-27T07:29:46.574Z,23.06
2018-05-27T07:30:46.606Z,23.06
2018-05-27T07:31:46.495Z,23.12
2018-05-27T07:32:46.443Z,23.12
2018-05-27T07:33:46.583Z,23.19
2018-05-27T07:34:46.504Z,23.25
2018-05-27T07:35:46.551Z,23.25
2018-05-27T07:36:46.575Z,23.25
2018-05-27T07:37:46.543Z,23.31
2018-05-27T07:38:46.440Z,23.31
2018-05-27T07:39:46.586Z,23.38
2018-05-27T07:40:47.383Z,23.44
2018-05-27T07:41:46.491Z,23.44
2018-05-27T07:42:46.489Z,23.5
2018-05-27T07:43:46.491Z,23.5
2018-05-27T07:44:46.513Z,23.56
2018-05-27T07:45:46.486Z,23.56
2018-05-27T07:46:46.500Z,23.62
2018-05-27T07:47:46.563Z,23.69
2018-05-27T07:48:46.511Z,23.69
2018-05-27T07:49:46.442Z,23.69
2018-05-27T07:50:46.549Z,23.69
2018-05-27T07:51:46.630Z,23.75
2018-05-27T07:52:46.446Z,23.81
2018-05-27T07:53:46.463Z,23.81
2018-05-27T07:54:46.511Z,23.81
2018-05-27T07:55:46.610Z,23.87
2018-05-27T07:56:46.457Z,23.94
2018-05-27T07:57:46.625Z,24
2018-05-27T07:58:46.529Z,24
2018-05-27T07:59:46.421Z,24.06
2018-05-27T08:00:46.536Z,24.06
2018-05-27T08:01:46.517Z,24.06
2018-05-27T08:02:46.492Z,24.19
2018-05-27T08:03:46.490Z,24.19
2018-05-27T08:04:46.533Z,24.19
2018-05-27T08:05:46.505Z,24.19
2018-05-27T08:06:46.453Z,24.19
2018-05-27T08:07:46.457Z,24.19
2018-05-27T08:08:46.463Z,24.25
2018-05-27T08:09:46.442Z,24.19
2018-05-27T08:10:46.455Z,24.19
2018-05-27T08:11:46.467Z,24.19
2018-05-27T08:12:46.534Z,24.19
2018-05-27T08:13:46.523Z,24.19
2018-05-27T08:14:46.519Z,24.19
2018-05-27T08:15:46.450Z,24.25
2018-05-27T08:16:46.428Z,24.25
2018-05-27T08:17:46.469Z,24.25
2018-05-27T08:18:46.610Z,24.25
2018-05-27T08:19:46.951Z,24.31
2018-05-27T08:20:46.484Z,24.31
2018-05-27T08:21:46.462Z,24.31
2018-05-27T08:22:46.554Z,24.37
2018-05-27T08:23:46.439Z,24.37
2018-05-27T08:24:46.445Z,24.37
2018-05-27T08:25:46.472Z,24.44
2018-05-27T08:26:46.668Z,24.5
2018-05-27T08:27:46.451Z,24.5
2018-05-27T08:28:46.469Z,24.56
2018-05-27T08:29:46.651Z,24.63
2018-05-27T08:30:46.445Z,24.63
2018-05-27T08:31:46.502Z,24.63
2018-05-27T08:32:46.488Z,24.63
2018-05-27T08:33:46.536Z,24.69
2018-05-27T08:34:46.461Z,24.69
2018-05-27T08:35:47.165Z,24.69
2018-05-27T08:36:46.455Z,24.75
2018-05-27T08:37:46.479Z,24.81
2018-05-27T08:38:46.455Z,24.81
2018-05-27T08:39:46.496Z,24.87
2018-05-27T08:40:46.440Z,24.87
2018-05-27T08:41:46.418Z,24.87
2018-05-27T08:42:46.470Z,24.94
2018-05-27T08:43:46.434Z,24.87
2018-05-27T08:44:46.465Z,24.87
2018-05-27T08:45:46.461Z,24.87
2018-05-27T08:46:46.460Z,24.87
2018-05-27T08:47:46.461Z,24.81
2018-05-27T08:48:46.413Z,24.81
2018-05-27T08:49:46.429Z,24.81
2018-05-27T08:50:46.446Z,24.87
2018-05-27T08:51:46.472Z,24.87
2018-05-27T08:52:46.501Z,24.81
2018-05-27T08:53:46.447Z,24.87
2018-05-27T08:54:46.433Z,24.87
2018-05-27T08:55:46.479Z,24.87
2018-05-27T08:56:46.444Z,24.94
2018-05-27T08:57:46.444Z,24.94
2018-05-27T08:58:46.448Z,25
2018-05-27T08:59:46.476Z,25
2018-05-27T09:00:46.441Z,25
2018-05-27T09:01:46.414Z,25
2018-05-27T09:02:46.401Z,25.12
2018-05-27T09:03:46.968Z,25.12
2018-05-27T09:04:46.478Z,25.19
2018-05-27T09:05:46.440Z,25.25
2018-05-27T09:06:46.465Z,25.31
2018-05-27T09:07:46.489Z,25.31
2018-05-27T09:08:46.469Z,25.37
2018-05-27T09:09:46.517Z,25.44
2018-05-27T09:10:46.467Z,25.44
2018-05-27T09:11:46.408Z,25.5
2018-05-27T09:12:46.451Z,25.56
2018-05-27T09:13:46.444Z,25.62
2018-05-27T09:14:46.467Z,25.69
2018-05-27T09:15:46.432Z,25.69
2018-05-27T09:16:46.447Z,25.69
2018-05-27T09:17:46.573Z,25.75
2018-05-27T09:18:46.531Z,25.75
2018-05-27T09:19:46.436Z,25.75
2018-05-27T09:20:46.423Z,25.75
2018-05-27T09:21:46.446Z,25.75
2018-05-27T09:22:46.524Z,25.81
2018-05-27T09:23:46.448Z,25.88
2018-05-27T09:24:46.835Z,25.88
2018-05-27T09:25:46.396Z,25.94
2018-05-27T09:26:46.455Z,26
2018-05-27T09:27:46.538Z,26.06
2018-05-27T09:28:46.582Z,26.06
2018-05-27T09:29:46.435Z,26.06
2018-05-27T09:30:46.777Z,26.06
2018-05-27T09:31:46.444Z,26.12
2018-05-27T09:32:47.240Z,26.12
2018-05-27T09:33:47.417Z,26.12
2018-05-27T09:34:46.611Z,26.12
2018-05-27T09:35:46.483Z,26.12
2018-05-27T09:36:46.424Z,26.12
2018-05-27T09:37:46.500Z,26.19
2018-05-27T09:38:46.471Z,26.19
2018-05-27T09:39:53.153Z,26.19
2018-05-27T09:40:47.637Z,26.25
2018-05-27T09:41:46.465Z,26.25
2018-05-27T09:42:46.456Z,26.25
2018-05-27T09:43:48.127Z,26.31
2018-05-27T09:44:46.424Z,26.31
2018-05-27T09:45:46.430Z,26.31
2018-05-27T09:46:47.359Z,26.37
2018-05-27T09:47:46.590Z,26.31
2018-05-27T09:48:46.435Z,26.31
2018-05-27T09:49:46.535Z,26.37
2018-05-27T09:50:46.438Z,26.37
2018-05-27T09:51:46.460Z,26.44
2018-05-27T09:52:46.559Z,26.5
2018-05-27T09:53:46.376Z,26.5
2018-05-27T09:54:46.528Z,26.5
2018-05-27T09:55:46.496Z,26.56
2018-05-27T09:56:46.390Z,26.62
2018-05-27T09:57:46.604Z,26.69
2018-05-27T09:58:46.444Z,26.69
2018-05-27T09:59:46.373Z,26.69
2018-05-27T10:00:46.432Z,26.69
2018-05-27T10:01:46.352Z,26.75
2018-05-27T10:02:46.433Z,26.69
2018-05-27T10:03:46.387Z,26.69
2018-05-27T10:04:46.369Z,26.69
2018-05-27T10:05:46.458Z,26.69
2018-05-27T10:06:46.453Z,26.69
2018-05-27T10:07:46.357Z,26.69
2018-05-27T10:08:46.366Z,26.69
2018-05-27T10:09:46.453Z,26.75
2018-05-27T10:10:46.361Z,26.69
2018-05-27T10:11:47.669Z,26.69
2018-05-27T10:12:46.775Z,26.75
2018-05-27T10:13:46.526Z,26.69
2018-05-27T10:14:46.415Z,26.75
2018-05-27T10:15:46.383Z,26.75
2018-05-27T10:16:46.417Z,26.75
2018-05-27T10:17:46.360Z,26.75
2018-05-27T10:18:46.510Z,26.81
2018-05-27T10:19:46.473Z,26.81
2018-05-27T10:20:46.385Z,26.81
2018-05-27T10:21:46.363Z,26.87
2018-05-27T10:22:46.372Z,26.87
2018-05-27T10:23:46.752Z,26.94
2018-05-27T10:24:46.867Z,27
2018-05-27T10:25:46.610Z,27
2018-05-27T10:26:46.390Z,27.06
2018-05-27T10:27:46.469Z,27.19
2018-05-27T10:28:46.365Z,27.13
2018-05-27T10:29:46.425Z,27.19
2018-05-27T10:30:46.401Z,27.19
2018-05-27T10:32:01.849Z,27.19
2018-05-27T10:32:47.418Z,27.25
2018-05-27T10:35:03.631Z,27.31
2018-05-27T10:35:04.813Z,27.37
2018-05-27T10:36:04.960Z,27.44
2018-05-27T10:37:05.204Z,27.44
2018-05-27T10:38:04.911Z,27.5
2018-05-27T10:39:05.166Z,27.5
2018-05-27T10:40:04.912Z,27.5
2018-05-27T10:41:04.927Z,27.5
2018-05-27T10:42:05.030Z,27.5
2018-05-27T10:43:04.966Z,27.5
2018-05-27T10:44:04.887Z,27.5
2018-05-27T10:45:07.442Z,27.5
2018-05-27T10:46:04.914Z,27.56
2018-05-27T10:47:04.934Z,27.56
2018-05-27T10:48:04.913Z,27.56
2018-05-27T10:49:04.926Z,27.62
2018-05-27T10:50:04.990Z,27.69
2018-05-27T10:51:04.976Z,27.75
2018-05-27T10:52:05.342Z,27.75
2018-05-27T10:53:06.588Z,27.75
2018-05-27T10:54:04.932Z,27.81
2018-05-27T10:55:04.955Z,27.81
2018-05-27T10:56:04.925Z,27.87
2018-05-27T10:57:05.001Z,27.87
2018-05-27T10:58:04.909Z,27.94
2018-05-27T10:59:04.877Z,27.94
2018-05-27T11:00:04.929Z,27.94
2018-05-27T11:01:04.918Z,28
2018-05-27T11:02:05.446Z,28
2018-05-27T11:03:05.072Z,28.06
2018-05-27T11:04:04.981Z,28.06
2018-05-27T11:05:05.117Z,28.06
2018-05-27T11:06:04.927Z,28.12
2018-05-27T11:07:04.926Z,28.19
2018-05-27T11:08:04.962Z,28.19
2018-05-27T11:09:04.901Z,28.19
2018-05-27T11:10:04.951Z,28.19
2018-05-27T11:11:04.871Z,28.25
2018-05-27T11:12:04.906Z,28.31
2018-05-27T11:13:05.000Z,28.38
2018-05-27T11:14:04.916Z,28.38
2018-05-27T11:15:04.884Z,28.44
2018-05-27T11:16:04.874Z,28.44
2018-05-27T11:17:05.070Z,28.44
2018-05-27T11:18:04.900Z,28.5
2018-05-27T11:19:05.046Z,28.5
2018-05-27T11:20:04.927Z,28.44
2018-05-27T11:21:04.898Z,28.44
2018-05-27T11:22:04.950Z,28.5
2018-05-27T11:23:04.909Z,28.44
2018-05-27T11:24:04.957Z,28.5
2018-05-27T11:25:04.889Z,28.56
2018-05-27T11:26:04.881Z,28.56
2018-05-27T11:27:05.074Z,28.56
2018-05-27T11:28:04.878Z,28.56
2018-05-27T11:29:04.903Z,28.62
2018-05-27T11:30:05.146Z,28.62
2018-05-27T11:31:04.921Z,28.69
2018-05-27T11:32:04.902Z,28.62
2018-05-27T11:33:05.034Z,28.69
2018-05-27T11:34:04.975Z,28.69
2018-05-27T11:35:04.897Z,28.62
2018-05-27T11:36:04.913Z,28.62
2018-05-27T11:37:05.036Z,28.69
2018-05-27T11:38:04.903Z,28.69
2018-05-27T11:39:04.881Z,28.75
2018-05-27T11:40:04.895Z,28.81
2018-05-27T11:41:04.987Z,28.81
2018-05-27T11:42:04.860Z,28.87
2018-05-27T11:43:05.016Z,28.87
2018-05-27T11:44:04.919Z,28.87
2018-05-27T11:45:04.946Z,28.87
2018-05-27T11:46:04.889Z,28.94
2018-05-27T11:47:04.962Z,28.87
2018-05-27T11:48:04.904Z,28.87
2018-05-27T11:49:04.921Z,28.87
2018-05-27T11:50:04.987Z,28.87
2018-05-27T11:51:04.921Z,28.94
2018-05-27T11:52:04.959Z,29
2018-05-27T11:53:04.940Z,29
2018-05-27T11:54:05.202Z,29
2018-05-27T11:55:04.954Z,29.06
2018-05-27T11:56:04.942Z,29.06
2018-05-27T11:57:04.934Z,29.12
2018-05-27T11:58:05.044Z,29.06
2018-05-27T11:59:04.883Z,29
2018-05-27T12:00:05.028Z,29.06
2018-05-27T12:01:05.126Z,29.12
2018-05-27T12:02:05.438Z,29.12
2018-05-27T12:03:05.148Z,29.19
2018-05-27T12:04:04.949Z,29.25
2018-05-27T12:05:05.062Z,29.31
2018-05-27T12:06:05.124Z,29.31
2018-05-27T12:07:04.933Z,29.37
2018-05-27T12:08:04.910Z,29.44
2018-05-27T12:09:07.013Z,29.44
2018-05-27T12:10:05.004Z,29.44
2018-05-27T12:11:04.999Z,29.5
2018-05-27T12:12:05.013Z,29.5
2018-05-27T12:13:05.026Z,29.56
2018-05-27T12:14:05.229Z,29.56
2018-05-27T12:15:05.899Z,29.5
2018-05-27T12:16:05.335Z,29.56
2018-05-27T12:17:05.467Z,29.56
2018-05-27T12:18:04.934Z,29.5
2018-05-27T12:19:04.954Z,29.5
2018-05-27T12:20:05.063Z,29.5
2018-05-27T12:21:05.101Z,29.37
2018-05-27T12:22:05.254Z,29.37
2018-05-27T12:23:04.950Z,29.37
2018-05-27T12:24:05.282Z,29.25
2018-05-27T12:25:04.984Z,29.25
2018-05-27T12:26:04.844Z,29.19
2018-05-27T12:27:04.977Z,29.19
2018-05-27T12:28:05.013Z,29.25
2018-05-27T12:29:04.874Z,29.25
2018-05-27T12:30:04.891Z,29.25
2018-05-27T12:31:04.935Z,29.25
2018-05-27T12:32:04.857Z,29.12
2018-05-27T12:33:05.073Z,29.12
2018-05-27T12:34:04.881Z,29.25
2018-05-27T12:35:04.862Z,29.25
2018-05-27T12:36:05.074Z,29.31
2018-05-27T12:37:04.978Z,29.37
2018-05-27T12:38:04.981Z,29.37
2018-05-27T12:39:04.862Z,29.5
2018-05-27T12:40:04.998Z,29.5
2018-05-27T12:41:04.956Z,29.63
2018-05-27T12:42:04.866Z,29.63
2018-05-27T12:43:04.971Z,29.69
2018-05-27T12:44:04.935Z,29.75
2018-05-27T12:45:05.055Z,29.81
2018-05-27T12:46:05.252Z,29.87
2018-05-27T12:47:04.891Z,29.94
2018-05-27T12:48:04.875Z,30
2018-05-27T12:49:04.951Z,29.94
2018-05-27T12:50:04.948Z,29.94
2018-05-27T12:51:05.659Z,30.06
2018-05-27T12:52:05.086Z,30.06
2018-05-27T12:53:04.886Z,30.19
2018-05-27T12:54:05.078Z,30.19
2018-05-27T12:55:05.009Z,30.25
2018-05-27T12:56:05.129Z,30.31
2018-05-27T12:57:04.949Z,30.31
2018-05-27T12:58:05.026Z,30.31
2018-05-27T12:59:05.126Z,30.31
2018-05-27T13:00:05.032Z,30.31